sensor_id;sensor_type;location;lat;lon;timestamp;P1;durP1;ratioP1;P2;durP2;ratioP2
74707;SDS011;63360;50.104;8.074;2023-07-28T00:00:03;2.87;;;0.90;;
74707;SDS011;63360;50.104;8.074;2023-07-28T00:02:30;2.75;;;1.00;;
74707;SDS011;63360;50.104;8.074;2023-07-28T00:04:57;5.05;;;1.00;;
74707;SDS011;63360;50.104;8.074;2023-07-28T00:07:23;4.07;;;0.90;;
74707;SDS011;63360;50.104;8.074;2023-07-28T00:09:50;2.58;;;1.02;;
74707;SDS011;63360;50.104;8.074;2023-07-28T00:12:16;3.70;;;0.93;;
74707;SDS011;63360;50.104;8.074;2023-07-28T00:14:43;4.50;;;0.90;;
74707;SDS011;63360;50.104;8.074;2023-07-28T00:17:09;2.88;;;0.93;;
74707;SDS011;63360;50.104;8.074;2023-07-28T00:19:35;5.03;;;1.08;;
74707;SDS011;63360;50.104;8.074;2023-07-28T00:22:02;2.20;;;0.98;;
74707;SDS011;63360;50.104;8.074;2023-07-28T00:24:28;2.43;;;0.93;;
74707;SDS011;63360;50.104;8.074;2023-07-28T00:26:55;3.55;;;0.98;;
74707;SDS011;63360;50.104;8.074;2023-07-28T00:29:21;2.67;;;1.00;;
74707;SDS011;63360;50.104;8.074;2023-07-28T00:31:48;2.63;;;0.85;;
74707;SDS011;63360;50.104;8.074;2023-07-28T00:34:14;4.75;;;0.90;;
74707;SDS011;63360;50.104;8.074;2023-07-28T00:36:41;3.40;;;0.97;;
74707;SDS011;63360;50.104;8.074;2023-07-28T00:39:07;3.92;;;1.10;;
74707;SDS011;63360;50.104;8.074;2023-07-28T00:41:34;3.45;;;0.90;;
74707;SDS011;63360;50.104;8.074;2023-07-28T00:44:00;4.22;;;1.10;;
74707;SDS011;63360;50.104;8.074;2023-07-28T00:46:26;7.43;;;1.02;;
74707;SDS011;63360;50.104;8.074;2023-07-28T00:48:53;2.30;;;0.80;;
74707;SDS011;63360;50.104;8.074;2023-07-28T00:51:20;2.50;;;0.75;;
74707;SDS011;63360;50.104;8.074;2023-07-28T00:53:47;1.65;;;0.80;;
74707;SDS011;63360;50.104;8.074;2023-07-28T00:56:14;2.10;;;0.77;;
74707;SDS011;63360;50.104;8.074;2023-07-28T00:58:41;7.88;;;1.00;;
74707;SDS011;63360;50.104;8.074;2023-07-28T01:01:08;3.27;;;0.80;;
74707;SDS011;63360;50.104;8.074;2023-07-28T01:03:35;5.47;;;0.77;;
74707;SDS011;63360;50.104;8.074;2023-07-28T01:06:06;1.80;;;0.77;;
74707;SDS011;63360;50.104;8.074;2023-07-28T01:11:09;2.63;;;0.70;;
74707;SDS011;63360;50.104;8.074;2023-07-28T01:13:36;2.77;;;0.73;;
74707;SDS011;63360;50.104;8.074;2023-07-28T01:16:02;1.85;;;0.80;;
74707;SDS011;63360;50.104;8.074;2023-07-28T01:18:29;3.92;;;0.77;;
74707;SDS011;63360;50.104;8.074;2023-07-28T01:20:56;3.05;;;0.90;;
74707;SDS011;63360;50.104;8.074;2023-07-28T01:26:11;2.47;;;0.77;;
74707;SDS011;63360;50.104;8.074;2023-07-28T01:28:39;3.28;;;0.85;;
74707;SDS011;63360;50.104;8.074;2023-07-28T01:31:07;3.10;;;0.70;;
74707;SDS011;63360;50.104;8.074;2023-07-28T01:33:34;2.22;;;0.80;;
74707;SDS011;63360;50.104;8.074;2023-07-28T01:36:01;1.80;;;0.75;;
74707;SDS011;63360;50.104;8.074;2023-07-28T01:38:28;3.20;;;0.70;;
74707;SDS011;63360;50.104;8.074;2023-07-28T01:40:55;1.60;;;0.77;;
74707;SDS011;63360;50.104;8.074;2023-07-28T01:43:21;1.52;;;0.82;;
74707;SDS011;63360;50.104;8.074;2023-07-28T01:45:48;1.70;;;0.88;;
74707;SDS011;63360;50.104;8.074;2023-07-28T01:48:14;2.55;;;0.80;;
74707;SDS011;63360;50.104;8.074;2023-07-28T01:50:41;2.33;;;0.73;;
74707;SDS011;63360;50.104;8.074;2023-07-28T01:53:07;2.10;;;0.70;;
74707;SDS011;63360;50.104;8.074;2023-07-28T01:55:33;2.38;;;0.77;;
74707;SDS011;63360;50.104;8.074;2023-07-28T01:58:00;2.33;;;0.70;;
74707;SDS011;63360;50.104;8.074;2023-07-28T02:00:28;1.35;;;0.65;;
74707;SDS011;63360;50.104;8.074;2023-07-28T02:02:55;1.50;;;0.80;;
74707;SDS011;63360;50.104;8.074;2023-07-28T02:05:21;1.63;;;0.77;;
74707;SDS011;63360;50.104;8.074;2023-07-28T02:07:48;2.17;;;0.70;;
74707;SDS011;63360;50.104;8.074;2023-07-28T02:10:14;2.35;;;0.70;;
74707;SDS011;63360;50.104;8.074;2023-07-28T02:12:41;1.30;;;0.68;;
74707;SDS011;63360;50.104;8.074;2023-07-28T02:15:07;1.90;;;0.73;;
74707;SDS011;63360;50.104;8.074;2023-07-28T02:17:34;2.05;;;0.50;;
74707;SDS011;63360;50.104;8.074;2023-07-28T02:20:01;2.10;;;0.57;;
74707;SDS011;63360;50.104;8.074;2023-07-28T02:22:29;5.35;;;0.70;;
74707;SDS011;63360;50.104;8.074;2023-07-28T02:24:56;1.85;;;0.70;;
74707;SDS011;63360;50.104;8.074;2023-07-28T02:27:22;1.93;;;0.70;;
74707;SDS011;63360;50.104;8.074;2023-07-28T02:29:49;3.05;;;0.82;;
74707;SDS011;63360;50.104;8.074;2023-07-28T02:32:15;1.08;;;0.50;;
74707;SDS011;63360;50.104;8.074;2023-07-28T02:34:42;3.78;;;0.70;;
74707;SDS011;63360;50.104;8.074;2023-07-28T02:37:08;1.52;;;0.50;;
74707;SDS011;63360;50.104;8.074;2023-07-28T02:39:34;2.07;;;0.50;;
74707;SDS011;63360;50.104;8.074;2023-07-28T02:42:01;1.02;;;0.40;;
74707;SDS011;63360;50.104;8.074;2023-07-28T02:44:28;2.28;;;0.60;;
74707;SDS011;63360;50.104;8.074;2023-07-28T02:46:54;4.13;;;0.70;;
74707;SDS011;63360;50.104;8.074;2023-07-28T02:49:21;2.10;;;0.50;;
74707;SDS011;63360;50.104;8.074;2023-07-28T02:51:47;0.97;;;0.60;;
74707;SDS011;63360;50.104;8.074;2023-07-28T02:54:14;2.55;;;0.57;;
74707;SDS011;63360;50.104;8.074;2023-07-28T02:56:40;2.17;;;0.50;;
74707;SDS011;63360;50.104;8.074;2023-07-28T02:59:07;1.20;;;0.45;;
74707;SDS011;63360;50.104;8.074;2023-07-28T03:01:33;1.75;;;0.47;;
74707;SDS011;63360;50.104;8.074;2023-07-28T03:04:00;5.00;;;0.47;;
74707;SDS011;63360;50.104;8.074;2023-07-28T03:06:27;2.30;;;0.57;;
74707;SDS011;63360;50.104;8.074;2023-07-28T03:08:54;2.05;;;0.50;;
74707;SDS011;63360;50.104;8.074;2023-07-28T03:11:21;2.03;;;0.50;;
74707;SDS011;63360;50.104;8.074;2023-07-28T03:13:47;1.33;;;0.50;;
74707;SDS011;63360;50.104;8.074;2023-07-28T03:16:14;1.03;;;0.40;;
74707;SDS011;63360;50.104;8.074;2023-07-28T03:18:40;4.63;;;0.50;;
74707;SDS011;63360;50.104;8.074;2023-07-28T03:21:08;1.25;;;0.40;;
74707;SDS011;63360;50.104;8.074;2023-07-28T03:23:35;3.13;;;0.50;;
74707;SDS011;63360;50.104;8.074;2023-07-28T03:26:01;1.05;;;0.40;;
74707;SDS011;63360;50.104;8.074;2023-07-28T03:28:27;1.13;;;0.43;;
74707;SDS011;63360;50.104;8.074;2023-07-28T03:30:54;1.00;;;0.40;;
74707;SDS011;63360;50.104;8.074;2023-07-28T03:33:21;0.70;;;0.30;;
74707;SDS011;63360;50.104;8.074;2023-07-28T03:35:47;0.93;;;0.30;;
74707;SDS011;63360;50.104;8.074;2023-07-28T03:38:14;1.08;;;0.40;;
74707;SDS011;63360;50.104;8.074;2023-07-28T03:40:40;0.90;;;0.47;;
74707;SDS011;63360;50.104;8.074;2023-07-28T03:43:07;1.77;;;0.40;;
74707;SDS011;63360;50.104;8.074;2023-07-28T03:45:34;1.90;;;0.40;;
74707;SDS011;63360;50.104;8.074;2023-07-28T03:48:00;0.60;;;0.30;;
74707;SDS011;63360;50.104;8.074;2023-07-28T03:50:27;2.25;;;0.38;;
74707;SDS011;63360;50.104;8.074;2023-07-28T03:52:54;2.43;;;0.40;;
74707;SDS011;63360;50.104;8.074;2023-07-28T03:55:20;1.55;;;0.40;;
74707;SDS011;63360;50.104;8.074;2023-07-28T03:57:47;2.58;;;0.50;;
74707;SDS011;63360;50.104;8.074;2023-07-28T04:00:13;3.17;;;0.30;;
74707;SDS011;63360;50.104;8.074;2023-07-28T04:02:40;1.92;;;0.40;;
74707;SDS011;63360;50.104;8.074;2023-07-28T04:05:07;2.93;;;0.47;;
74707;SDS011;63360;50.104;8.074;2023-07-28T04:07:33;2.05;;;0.45;;
74707;SDS011;63360;50.104;8.074;2023-07-28T04:10:00;0.85;;;0.40;;
74707;SDS011;63360;50.104;8.074;2023-07-28T04:12:26;1.00;;;0.40;;
74707;SDS011;63360;50.104;8.074;2023-07-28T04:14:53;2.65;;;0.85;;
74707;SDS011;63360;50.104;8.074;2023-07-28T04:17:22;3.93;;;0.50;;
74707;SDS011;63360;50.104;8.074;2023-07-28T04:19:49;2.65;;;0.40;;
74707;SDS011;63360;50.104;8.074;2023-07-28T04:22:15;2.60;;;0.40;;
74707;SDS011;63360;50.104;8.074;2023-07-28T04:24:47;1.77;;;0.45;;
74707;SDS011;63360;50.104;8.074;2023-07-28T04:27:16;1.58;;;0.50;;
74707;SDS011;63360;50.104;8.074;2023-07-28T04:29:43;1.17;;;0.60;;
74707;SDS011;63360;50.104;8.074;2023-07-28T04:32:09;3.65;;;0.60;;
74707;SDS011;63360;50.104;8.074;2023-07-28T04:34:36;1.60;;;0.60;;
74707;SDS011;63360;50.104;8.074;2023-07-28T04:37:02;3.75;;;0.60;;
74707;SDS011;63360;50.104;8.074;2023-07-28T04:39:29;2.63;;;0.52;;
74707;SDS011;63360;50.104;8.074;2023-07-28T04:41:55;0.90;;;0.50;;
74707;SDS011;63360;50.104;8.074;2023-07-28T04:44:21;2.70;;;0.63;;
74707;SDS011;63360;50.104;8.074;2023-07-28T04:46:48;2.10;;;0.80;;
74707;SDS011;63360;50.104;8.074;2023-07-28T04:49:14;1.95;;;0.60;;
74707;SDS011;63360;50.104;8.074;2023-07-28T04:51:41;1.63;;;0.55;;
74707;SDS011;63360;50.104;8.074;2023-07-28T04:54:07;2.07;;;0.60;;
74707;SDS011;63360;50.104;8.074;2023-07-28T04:56:34;3.42;;;0.70;;
74707;SDS011;63360;50.104;8.074;2023-07-28T04:59:01;1.73;;;0.88;;
74707;SDS011;63360;50.104;8.074;2023-07-28T05:01:27;2.38;;;0.68;;
74707;SDS011;63360;50.104;8.074;2023-07-28T05:03:54;2.33;;;0.60;;
74707;SDS011;63360;50.104;8.074;2023-07-28T05:06:20;1.00;;;0.50;;
74707;SDS011;63360;50.104;8.074;2023-07-28T05:08:47;1.23;;;0.50;;
74707;SDS011;63360;50.104;8.074;2023-07-28T05:11:13;0.90;;;0.40;;
74707;SDS011;63360;50.104;8.074;2023-07-28T05:13:40;0.85;;;0.45;;
74707;SDS011;63360;50.104;8.074;2023-07-28T05:16:06;1.52;;;0.50;;
74707;SDS011;63360;50.104;8.074;2023-07-28T05:18:33;1.60;;;0.50;;
74707;SDS011;63360;50.104;8.074;2023-07-28T05:20:59;2.58;;;0.50;;
74707;SDS011;63360;50.104;8.074;2023-07-28T05:23:25;1.33;;;0.50;;
74707;SDS011;63360;50.104;8.074;2023-07-28T05:25:52;2.42;;;0.60;;
74707;SDS011;63360;50.104;8.074;2023-07-28T05:28:18;0.88;;;0.50;;
74707;SDS011;63360;50.104;8.074;2023-07-28T05:30:45;1.33;;;0.60;;
74707;SDS011;63360;50.104;8.074;2023-07-28T05:33:11;1.38;;;0.43;;
74707;SDS011;63360;50.104;8.074;2023-07-28T05:35:38;0.95;;;0.52;;
74707;SDS011;63360;50.104;8.074;2023-07-28T05:38:04;3.38;;;0.40;;
74707;SDS011;63360;50.104;8.074;2023-07-28T05:40:31;2.92;;;0.73;;
74707;SDS011;63360;50.104;8.074;2023-07-28T05:42:57;1.20;;;0.50;;
74707;SDS011;63360;50.104;8.074;2023-07-28T05:45:24;2.50;;;0.50;;
74707;SDS011;63360;50.104;8.074;2023-07-28T05:47:50;1.27;;;0.40;;
74707;SDS011;63360;50.104;8.074;2023-07-28T05:50:16;2.60;;;0.45;;
74707;SDS011;63360;50.104;8.074;2023-07-28T05:52:43;0.55;;;0.30;;
74707;SDS011;63360;50.104;8.074;2023-07-28T05:55:09;0.67;;;0.30;;
74707;SDS011;63360;50.104;8.074;2023-07-28T05:57:37;0.60;;;0.30;;
74707;SDS011;63360;50.104;8.074;2023-07-28T06:00:03;1.20;;;0.40;;
74707;SDS011;63360;50.104;8.074;2023-07-28T06:02:30;1.08;;;0.40;;
74707;SDS011;63360;50.104;8.074;2023-07-28T06:04:57;0.60;;;0.40;;
74707;SDS011;63360;50.104;8.074;2023-07-28T06:07:23;1.67;;;0.30;;
74707;SDS011;63360;50.104;8.074;2023-07-28T06:09:51;0.88;;;0.30;;
74707;SDS011;63360;50.104;8.074;2023-07-28T06:12:17;0.73;;;0.40;;
74707;SDS011;63360;50.104;8.074;2023-07-28T06:14:44;0.60;;;0.30;;
74707;SDS011;63360;50.104;8.074;2023-07-28T06:17:10;3.05;;;0.40;;
74707;SDS011;63360;50.104;8.074;2023-07-28T06:19:36;1.27;;;0.30;;
74707;SDS011;63360;50.104;8.074;2023-07-28T06:22:03;0.90;;;0.40;;
74707;SDS011;63360;50.104;8.074;2023-07-28T06:24:30;0.50;;;0.30;;
74707;SDS011;63360;50.104;8.074;2023-07-28T06:26:57;0.80;;;0.50;;
74707;SDS011;63360;50.104;8.074;2023-07-28T06:29:23;0.73;;;0.40;;
74707;SDS011;63360;50.104;8.074;2023-07-28T06:31:49;2.10;;;0.33;;
74707;SDS011;63360;50.104;8.074;2023-07-28T06:34:16;2.92;;;0.40;;
74707;SDS011;63360;50.104;8.074;2023-07-28T06:36:43;0.80;;;0.40;;
74707;SDS011;63360;50.104;8.074;2023-07-28T06:39:09;0.70;;;0.38;;
74707;SDS011;63360;50.104;8.074;2023-07-28T06:41:35;1.35;;;0.30;;
74707;SDS011;63360;50.104;8.074;2023-07-28T06:44:03;2.80;;;0.40;;
74707;SDS011;63360;50.104;8.074;2023-07-28T06:46:29;0.90;;;0.47;;
74707;SDS011;63360;50.104;8.074;2023-07-28T06:48:56;0.70;;;0.30;;
74707;SDS011;63360;50.104;8.074;2023-07-28T06:51:23;0.73;;;0.30;;
74707;SDS011;63360;50.104;8.074;2023-07-28T06:53:49;0.80;;;0.40;;
74707;SDS011;63360;50.104;8.074;2023-07-28T06:56:16;1.00;;;0.40;;
74707;SDS011;63360;50.104;8.074;2023-07-28T06:58:43;1.63;;;0.43;;
74707;SDS011;63360;50.104;8.074;2023-07-28T07:01:22;1.40;;;0.50;;
74707;SDS011;63360;50.104;8.074;2023-07-28T07:03:49;1.83;;;0.40;;
74707;SDS011;63360;50.104;8.074;2023-07-28T07:06:15;0.60;;;0.40;;
74707;SDS011;63360;50.104;8.074;2023-07-28T07:08:43;1.87;;;0.40;;
74707;SDS011;63360;50.104;8.074;2023-07-28T07:11:09;0.70;;;0.45;;
74707;SDS011;63360;50.104;8.074;2023-07-28T07:13:36;1.00;;;0.40;;
74707;SDS011;63360;50.104;8.074;2023-07-28T07:16:02;1.15;;;0.50;;
74707;SDS011;63360;50.104;8.074;2023-07-28T07:18:29;1.48;;;0.40;;
74707;SDS011;63360;50.104;8.074;2023-07-28T07:20:55;0.70;;;0.50;;
74707;SDS011;63360;50.104;8.074;2023-07-28T07:23:22;1.60;;;0.52;;
74707;SDS011;63360;50.104;8.074;2023-07-28T07:25:49;2.22;;;0.70;;
74707;SDS011;63360;50.104;8.074;2023-07-28T07:28:16;0.98;;;0.47;;
74707;SDS011;63360;50.104;8.074;2023-07-28T07:30:42;1.25;;;0.50;;
74707;SDS011;63360;50.104;8.074;2023-07-28T07:33:09;1.20;;;0.60;;
74707;SDS011;63360;50.104;8.074;2023-07-28T07:35:36;1.55;;;0.90;;
74707;SDS011;63360;50.104;8.074;2023-07-28T07:38:04;3.45;;;0.70;;
74707;SDS011;63360;50.104;8.074;2023-07-28T07:40:35;1.25;;;0.57;;
74707;SDS011;63360;50.104;8.074;2023-07-28T07:43:02;2.17;;;0.60;;
74707;SDS011;63360;50.104;8.074;2023-07-28T07:45:32;1.43;;;0.60;;
74707;SDS011;63360;50.104;8.074;2023-07-28T07:47:59;0.98;;;0.60;;
74707;SDS011;63360;50.104;8.074;2023-07-28T07:50:25;2.30;;;0.70;;
74707;SDS011;63360;50.104;8.074;2023-07-28T07:52:52;1.23;;;0.60;;
74707;SDS011;63360;50.104;8.074;2023-07-28T07:55:18;2.78;;;0.60;;
74707;SDS011;63360;50.104;8.074;2023-07-28T07:57:45;2.47;;;0.70;;
74707;SDS011;63360;50.104;8.074;2023-07-28T08:00:12;1.20;;;0.57;;
74707;SDS011;63360;50.104;8.074;2023-07-28T08:02:39;2.85;;;0.80;;
74707;SDS011;63360;50.104;8.074;2023-07-28T08:05:10;2.13;;;0.80;;
74707;SDS011;63360;50.104;8.074;2023-07-28T08:07:36;1.38;;;0.70;;
74707;SDS011;63360;50.104;8.074;2023-07-28T08:10:03;1.63;;;0.80;;
74707;SDS011;63360;50.104;8.074;2023-07-28T08:12:30;1.30;;;0.80;;
74707;SDS011;63360;50.104;8.074;2023-07-28T08:14:56;0.93;;;0.60;;
74707;SDS011;63360;50.104;8.074;2023-07-28T08:17:23;2.90;;;0.70;;
74707;SDS011;63360;50.104;8.074;2023-07-28T08:19:49;1.13;;;0.60;;
74707;SDS011;63360;50.104;8.074;2023-07-28T08:22:16;2.07;;;0.60;;
74707;SDS011;63360;50.104;8.074;2023-07-28T08:24:42;0.90;;;0.60;;
74707;SDS011;63360;50.104;8.074;2023-07-28T08:27:09;2.08;;;0.70;;
74707;SDS011;63360;50.104;8.074;2023-07-28T08:29:35;1.25;;;0.60;;
74707;SDS011;63360;50.104;8.074;2023-07-28T08:32:02;1.95;;;0.70;;
74707;SDS011;63360;50.104;8.074;2023-07-28T08:34:28;1.53;;;0.70;;
74707;SDS011;63360;50.104;8.074;2023-07-28T08:36:55;1.20;;;0.68;;
74707;SDS011;63360;50.104;8.074;2023-07-28T08:39:21;1.88;;;0.73;;
74707;SDS011;63360;50.104;8.074;2023-07-28T08:41:48;0.90;;;0.60;;
74707;SDS011;63360;50.104;8.074;2023-07-28T08:44:23;2.28;;;0.77;;
74707;SDS011;63360;50.104;8.074;2023-07-28T08:46:50;1.50;;;0.60;;
74707;SDS011;63360;50.104;8.074;2023-07-28T08:49:16;4.13;;;0.80;;
74707;SDS011;63360;50.104;8.074;2023-07-28T08:51:48;2.55;;;0.70;;
74707;SDS011;63360;50.104;8.074;2023-07-28T08:54:15;2.35;;;0.70;;
74707;SDS011;63360;50.104;8.074;2023-07-28T08:56:42;1.50;;;0.93;;
74707;SDS011;63360;50.104;8.074;2023-07-28T08:59:10;2.03;;;0.70;;
74707;SDS011;63360;50.104;8.074;2023-07-28T09:01:39;2.33;;;0.68;;
74707;SDS011;63360;50.104;8.074;2023-07-28T09:04:10;1.48;;;0.60;;
74707;SDS011;63360;50.104;8.074;2023-07-28T09:06:37;2.78;;;0.80;;
74707;SDS011;63360;50.104;8.074;2023-07-28T09:09:07;1.10;;;0.75;;
74707;SDS011;63360;50.104;8.074;2023-07-28T09:11:38;1.90;;;0.80;;
74707;SDS011;63360;50.104;8.074;2023-07-28T09:14:13;1.55;;;0.70;;
74707;SDS011;63360;50.104;8.074;2023-07-28T09:16:42;1.17;;;0.60;;
74707;SDS011;63360;50.104;8.074;2023-07-28T09:19:09;0.90;;;0.60;;
74707;SDS011;63360;50.104;8.074;2023-07-28T09:21:37;1.95;;;0.60;;
74707;SDS011;63360;50.104;8.074;2023-07-28T09:24:09;1.83;;;0.50;;
74707;SDS011;63360;50.104;8.074;2023-07-28T09:26:40;1.15;;;0.70;;
74707;SDS011;63360;50.104;8.074;2023-07-28T09:29:14;2.03;;;0.60;;
74707;SDS011;63360;50.104;8.074;2023-07-28T09:31:42;1.75;;;0.60;;
74707;SDS011;63360;50.104;8.074;2023-07-28T09:34:09;1.30;;;0.50;;
74707;SDS011;63360;50.104;8.074;2023-07-28T09:36:36;2.90;;;0.63;;
74707;SDS011;63360;50.104;8.074;2023-07-28T09:39:05;2.33;;;0.50;;
74707;SDS011;63360;50.104;8.074;2023-07-28T09:41:35;3.53;;;0.70;;
74707;SDS011;63360;50.104;8.074;2023-07-28T09:44:03;1.55;;;0.70;;
74707;SDS011;63360;50.104;8.074;2023-07-28T09:46:34;1.33;;;0.60;;
74707;SDS011;63360;50.104;8.074;2023-07-28T09:49:05;2.00;;;0.70;;
74707;SDS011;63360;50.104;8.074;2023-07-28T09:51:36;2.17;;;0.60;;
74707;SDS011;63360;50.104;8.074;2023-07-28T09:54:15;2.95;;;0.70;;
74707;SDS011;63360;50.104;8.074;2023-07-28T09:56:56;1.63;;;0.75;;
74707;SDS011;63360;50.104;8.074;2023-07-28T09:59:32;1.20;;;0.55;;
74707;SDS011;63360;50.104;8.074;2023-07-28T10:02:01;1.40;;;0.60;;
74707;SDS011;63360;50.104;8.074;2023-07-28T10:04:29;1.75;;;0.70;;
74707;SDS011;63360;50.104;8.074;2023-07-28T10:06:55;1.45;;;0.60;;
74707;SDS011;63360;50.104;8.074;2023-07-28T10:09:23;1.52;;;0.60;;
74707;SDS011;63360;50.104;8.074;2023-07-28T10:11:51;2.35;;;0.60;;
74707;SDS011;63360;50.104;8.074;2023-07-28T10:14:25;4.30;;;0.80;;
74707;SDS011;63360;50.104;8.074;2023-07-28T10:16:53;1.52;;;0.70;;
74707;SDS011;63360;50.104;8.074;2023-07-28T10:19:20;1.25;;;0.50;;
74707;SDS011;63360;50.104;8.074;2023-07-28T10:21:47;1.38;;;0.65;;
74707;SDS011;63360;50.104;8.074;2023-07-28T10:24:14;0.90;;;0.60;;
74707;SDS011;63360;50.104;8.074;2023-07-28T10:26:41;0.90;;;0.60;;
74707;SDS011;63360;50.104;8.074;2023-07-28T10:29:11;1.58;;;0.73;;
74707;SDS011;63360;50.104;8.074;2023-07-28T10:31:52;1.00;;;0.47;;
74707;SDS011;63360;50.104;8.074;2023-07-28T10:34:20;2.22;;;0.70;;
74707;SDS011;63360;50.104;8.074;2023-07-28T10:36:56;1.83;;;0.60;;
74707;SDS011;63360;50.104;8.074;2023-07-28T10:39:23;2.40;;;0.70;;
74707;SDS011;63360;50.104;8.074;2023-07-28T10:42:00;1.20;;;0.70;;
74707;SDS011;63360;50.104;8.074;2023-07-28T10:44:31;1.10;;;0.52;;
74707;SDS011;63360;50.104;8.074;2023-07-28T10:46:58;2.03;;;0.60;;
74707;SDS011;63360;50.104;8.074;2023-07-28T10:49:25;1.40;;;0.55;;
74707;SDS011;63360;50.104;8.074;2023-07-28T10:51:52;2.03;;;0.63;;
74707;SDS011;63360;50.104;8.074;2023-07-28T10:54:19;1.60;;;0.60;;
74707;SDS011;63360;50.104;8.074;2023-07-28T10:56:47;1.55;;;0.60;;
74707;SDS011;63360;50.104;8.074;2023-07-28T10:59:14;2.28;;;0.60;;
74707;SDS011;63360;50.104;8.074;2023-07-28T11:01:41;4.38;;;0.90;;
74707;SDS011;63360;50.104;8.074;2023-07-28T11:06:43;1.35;;;0.60;;
74707;SDS011;63360;50.104;8.074;2023-07-28T11:09:11;1.08;;;0.70;;
74707;SDS011;63360;50.104;8.074;2023-07-28T11:11:41;2.65;;;0.82;;
74707;SDS011;63360;50.104;8.074;2023-07-28T11:14:14;1.58;;;0.60;;
74707;SDS011;63360;50.104;8.074;2023-07-28T11:16:41;1.00;;;0.70;;
74707;SDS011;63360;50.104;8.074;2023-07-28T11:19:09;1.10;;;0.60;;
74707;SDS011;63360;50.104;8.074;2023-07-28T11:21:37;1.10;;;0.82;;
74707;SDS011;63360;50.104;8.074;2023-07-28T11:24:05;1.40;;;0.60;;
74707;SDS011;63360;50.104;8.074;2023-07-28T11:26:36;2.88;;;0.77;;
74707;SDS011;63360;50.104;8.074;2023-07-28T11:29:04;4.03;;;0.60;;
74707;SDS011;63360;50.104;8.074;2023-07-28T11:31:31;2.53;;;1.00;;
74707;SDS011;63360;50.104;8.074;2023-07-28T11:33:59;1.75;;;0.60;;
74707;SDS011;63360;50.104;8.074;2023-07-28T11:36:26;1.85;;;0.60;;
74707;SDS011;63360;50.104;8.074;2023-07-28T11:38:55;1.60;;;0.63;;
74707;SDS011;63360;50.104;8.074;2023-07-28T11:41:23;1.00;;;0.60;;
74707;SDS011;63360;50.104;8.074;2023-07-28T11:43:51;2.47;;;0.68;;
74707;SDS011;63360;50.104;8.074;2023-07-28T11:49:11;1.90;;;0.80;;
74707;SDS011;63360;50.104;8.074;2023-07-28T11:51:40;2.65;;;0.70;;
74707;SDS011;63360;50.104;8.074;2023-07-28T11:54:10;1.00;;;0.63;;
74707;SDS011;63360;50.104;8.074;2023-07-28T11:56:38;3.45;;;0.70;;
74707;SDS011;63360;50.104;8.074;2023-07-28T11:59:05;1.52;;;0.70;;
74707;SDS011;63360;50.104;8.074;2023-07-28T12:01:31;1.85;;;0.80;;
74707;SDS011;63360;50.104;8.074;2023-07-28T12:03:58;1.05;;;0.70;;
74707;SDS011;63360;50.104;8.074;2023-07-28T12:06:27;2.00;;;0.80;;
74707;SDS011;63360;50.104;8.074;2023-07-28T12:09:04;1.00;;;0.70;;
74707;SDS011;63360;50.104;8.074;2023-07-28T12:11:34;2.08;;;1.00;;
74707;SDS011;63360;50.104;8.074;2023-07-28T12:14:03;1.80;;;0.90;;
74707;SDS011;63360;50.104;8.074;2023-07-28T12:16:37;2.30;;;0.80;;
74707;SDS011;63360;50.104;8.074;2023-07-28T12:19:09;3.90;;;1.00;;
74707;SDS011;63360;50.104;8.074;2023-07-28T12:21:36;3.63;;;1.08;;
74707;SDS011;63360;50.104;8.074;2023-07-28T12:24:03;2.28;;;0.93;;
74707;SDS011;63360;50.104;8.074;2023-07-28T12:26:33;2.03;;;1.10;;
74707;SDS011;63360;50.104;8.074;2023-07-28T12:29:03;3.33;;;1.05;;
74707;SDS011;63360;50.104;8.074;2023-07-28T12:31:36;1.43;;;0.90;;
74707;SDS011;63360;50.104;8.074;2023-07-28T12:34:05;2.38;;;1.20;;
74707;SDS011;63360;50.104;8.074;2023-07-28T12:36:32;3.13;;;1.23;;
74707;SDS011;63360;50.104;8.074;2023-07-28T12:39:18;2.30;;;1.10;;
74707;SDS011;63360;50.104;8.074;2023-07-28T12:41:48;1.73;;;1.33;;
74707;SDS011;63360;50.104;8.074;2023-07-28T12:44:35;2.10;;;1.30;;
74707;SDS011;63360;50.104;8.074;2023-07-28T12:47:05;2.85;;;1.38;;
74707;SDS011;63360;50.104;8.074;2023-07-28T12:49:33;4.55;;;1.45;;
74707;SDS011;63360;50.104;8.074;2023-07-28T12:52:01;2.47;;;1.40;;
74707;SDS011;63360;50.104;8.074;2023-07-28T12:54:30;1.77;;;1.38;;
74707;SDS011;63360;50.104;8.074;2023-07-28T12:57:08;3.57;;;1.60;;
74707;SDS011;63360;50.104;8.074;2023-07-28T12:59:37;3.17;;;1.55;;
74707;SDS011;63360;50.104;8.074;2023-07-28T13:02:23;2.65;;;1.60;;
74707;SDS011;63360;50.104;8.074;2023-07-28T13:04:50;2.88;;;1.45;;
74707;SDS011;63360;50.104;8.074;2023-07-28T13:07:16;2.53;;;1.30;;
74707;SDS011;63360;50.104;8.074;2023-07-28T13:09:46;3.60;;;1.50;;
74707;SDS011;63360;50.104;8.074;2023-07-28T13:12:13;2.85;;;1.48;;
74707;SDS011;63360;50.104;8.074;2023-07-28T13:14:42;3.47;;;1.50;;
74707;SDS011;63360;50.104;8.074;2023-07-28T13:17:09;2.30;;;1.23;;
74707;SDS011;63360;50.104;8.074;2023-07-28T13:19:35;2.55;;;1.23;;
74707;SDS011;63360;50.104;8.074;2023-07-28T13:22:02;2.50;;;1.03;;
74707;SDS011;63360;50.104;8.074;2023-07-28T13:24:28;2.47;;;1.30;;
74707;SDS011;63360;50.104;8.074;2023-07-28T13:26:55;1.90;;;1.20;;
74707;SDS011;63360;50.104;8.074;2023-07-28T13:29:21;1.90;;;1.20;;
74707;SDS011;63360;50.104;8.074;2023-07-28T13:31:47;1.60;;;1.20;;
74707;SDS011;63360;50.104;8.074;2023-07-28T13:34:14;2.00;;;1.20;;
74707;SDS011;63360;50.104;8.074;2023-07-28T13:36:40;1.73;;;1.17;;
74707;SDS011;63360;50.104;8.074;2023-07-28T13:39:09;2.28;;;0.90;;
74707;SDS011;63360;50.104;8.074;2023-07-28T13:41:35;2.20;;;1.20;;
74707;SDS011;63360;50.104;8.074;2023-07-28T13:44:02;2.45;;;0.98;;
74707;SDS011;63360;50.104;8.074;2023-07-28T13:46:29;1.50;;;0.90;;
74707;SDS011;63360;50.104;8.074;2023-07-28T13:48:55;2.65;;;1.13;;
74707;SDS011;63360;50.104;8.074;2023-07-28T13:51:32;2.85;;;0.80;;
74707;SDS011;63360;50.104;8.074;2023-07-28T13:54:19;1.73;;;1.00;;
74707;SDS011;63360;50.104;8.074;2023-07-28T13:56:48;4.68;;;1.02;;
74707;SDS011;63360;50.104;8.074;2023-07-28T13:59:17;4.43;;;1.20;;
74707;SDS011;63360;50.104;8.074;2023-07-28T14:01:44;2.10;;;1.35;;
74707;SDS011;63360;50.104;8.074;2023-07-28T14:04:10;2.20;;;1.30;;
74707;SDS011;63360;50.104;8.074;2023-07-28T14:06:37;1.95;;;1.33;;
74707;SDS011;63360;50.104;8.074;2023-07-28T14:09:03;2.25;;;1.60;;
74707;SDS011;63360;50.104;8.074;2023-07-28T14:11:30;2.93;;;1.10;;
74707;SDS011;63360;50.104;8.074;2023-07-28T14:13:56;2.17;;;1.30;;
74707;SDS011;63360;50.104;8.074;2023-07-28T14:16:23;5.28;;;1.35;;
74707;SDS011;63360;50.104;8.074;2023-07-28T14:18:49;2.25;;;1.15;;
74707;SDS011;63360;50.104;8.074;2023-07-28T14:21:16;2.65;;;1.20;;
74707;SDS011;63360;50.104;8.074;2023-07-28T14:23:43;2.93;;;1.37;;
74707;SDS011;63360;50.104;8.074;2023-07-28T14:26:09;3.50;;;1.30;;
74707;SDS011;63360;50.104;8.074;2023-07-28T14:28:35;2.78;;;1.40;;
74707;SDS011;63360;50.104;8.074;2023-07-28T14:31:02;2.85;;;1.50;;
74707;SDS011;63360;50.104;8.074;2023-07-28T14:33:28;1.85;;;1.10;;
74707;SDS011;63360;50.104;8.074;2023-07-28T14:35:55;1.80;;;1.10;;
74707;SDS011;63360;50.104;8.074;2023-07-28T14:38:21;2.47;;;0.90;;
74707;SDS011;63360;50.104;8.074;2023-07-28T14:40:48;1.40;;;1.00;;
74707;SDS011;63360;50.104;8.074;2023-07-28T14:43:16;1.70;;;1.10;;
74707;SDS011;63360;50.104;8.074;2023-07-28T14:45:43;1.95;;;1.08;;
74707;SDS011;63360;50.104;8.074;2023-07-28T14:48:10;1.80;;;1.20;;
74707;SDS011;63360;50.104;8.074;2023-07-28T14:50:37;2.88;;;1.10;;
74707;SDS011;63360;50.104;8.074;2023-07-28T14:53:26;2.05;;;1.20;;
74707;SDS011;63360;50.104;8.074;2023-07-28T14:56:03;1.58;;;1.10;;
74707;SDS011;63360;50.104;8.074;2023-07-28T14:58:31;2.95;;;1.02;;
74707;SDS011;63360;50.104;8.074;2023-07-28T15:00:58;2.70;;;1.00;;